Time;durP1;ratioP1;P1;durP2;ratioP2;P2;SDS_P1;SDS_P2;PMS_P1;PMS_P2;Temp;Humidity;BMP_temperature;BMP_pressure;BME280_temperature;BME280_humidity;BME280_pressure;Samples;Min_cycle;Max_cycle;Signal;HPM_P1;HPM_P2
2022/01/16 00:04:24;;;;;;;20.92;14.32;;;;;;;;;;5052880;28;20212;-56
2022/01/16 00:06:51;;;;;;;25.23;16.23;;;;;;;;;;5053178;28;20220;-56
2022/01/16 00:09:18;;;;;;;22.33;15.77;;;;;;;;;;5052981;28;20198;-57
2022/01/16 00:11:47;;;;;;;23.00;15.13;;;;;;;;;;5052950;28;20202;-57
2022/01/16 00:14:15;;;;;;;23.23;14.98;;;;;;;;;;5052964;28;20230;-55
2022/01/16 00:16:42;;;;;;;22.00;14.85;;;;;;;;;;5053013;28;20205;-55
2022/01/16 00:19:09;;;;;;;19.52;14.35;;;;;;;;;;5052962;28;20202;-56
2022/01/16 00:21:40;;;;;;;20.17;14.70;;;;;;;;;;5053290;28;20205;-55
2022/01/16 00:24:08;;;;;;;22.02;15.07;;;;;;;;;;5053379;28;20232;-56
2022/01/16 00:26:36;;;;;;;22.40;14.48;;;;;;;;;;5057227;28;20228;-56
2022/01/16 00:29:07;;;;;;;20.52;13.25;;;;;;;;;;5056929;28;20251;-56
2022/01/16 00:31:35;;;;;;;20.58;14.45;;;;;;;;;;5056999;28;20193;-56
2022/01/16 00:34:02;;;;;;;18.48;12.93;;;;;;;;;;5056824;28;20572;-56
2022/01/16 00:36:29;;;;;;;19.33;14.15;;;;;;;;;;5057749;28;20572;-57
2022/01/16 00:38:58;;;;;;;19.35;13.55;;;;;;;;;;5056596;28;20204;-55
2022/01/16 00:41:26;;;;;;;21.30;14.05;;;;;;;;;;5057195;28;20259;-57
2022/01/16 00:43:54;;;;;;;20.63;13.10;;;;;;;;;;5057013;28;20213;-55
2022/01/16 00:46:23;;;;;;;22.70;14.18;;;;;;;;;;5056864;28;20263;-56
2022/01/16 00:48:51;;;;;;;20.60;14.32;;;;;;;;;;5056750;28;20638;-56
2022/01/16 00:51:18;;;;;;;19.13;13.15;;;;;;;;;;5056910;28;20284;-56
2022/01/16 00:53:46;;;;;;;19.00;13.68;;;;;;;;;;5056946;28;20252;-55
2022/01/16 00:56:14;;;;;;;17.88;13.02;;;;;;;;;;5056560;28;20198;-56
2022/01/16 00:58:41;;;;;;;19.35;13.63;;;;;;;;;;5056704;28;20569;-56
2022/01/16 01:01:09;;;;;;;18.08;12.98;;;;;;;;;;5057489;28;20666;-56
2022/01/16 01:03:38;;;;;;;17.15;11.10;;;;;;;;;;5056934;28;20201;-55
2022/01/16 01:06:05;;;;;;;17.60;12.70;;;;;;;;;;5056229;28;20208;-56
2022/01/16 01:08:32;;;;;;;19.70;13.43;;;;;;;;;;5056289;28;20213;-55
2022/01/16 01:11:02;;;;;;;19.77;13.75;;;;;;;;;;5056402;28;20202;-56
2022/01/16 01:13:44;;;;;;;17.77;12.48;;;;;;;;;;5056133;28;20208;-55
2022/01/16 01:16:15;;;;;;;21.10;12.93;;;;;;;;;;5056484;28;20233;-56
2022/01/16 01:18:44;;;;;;;17.15;11.77;;;;;;;;;;5056207;28;20186;-55
2022/01/16 01:21:24;;;;;;;18.33;11.82;;;;;;;;;;5055858;28;20202;-55
2022/01/16 01:23:51;;;;;;;16.05;12.18;;;;;;;;;;5055987;28;20737;-55
2022/01/16 01:26:23;;;;;;;17.20;11.73;;;;;;;;;;5055986;28;20228;-55
2022/01/16 01:28:50;;;;;;;18.90;12.50;;;;;;;;;;5056106;28;20186;-56
2022/01/16 01:31:18;;;;;;;19.67;12.90;;;;;;;;;;5055722;28;20213;-56
2022/01/16 01:33:46;;;;;;;18.23;12.98;;;;;;;;;;5055618;28;20228;-55
2022/01/16 01:36:14;;;;;;;18.85;13.27;;;;;;;;;;5055140;28;20202;-55
2022/01/16 01:38:41;;;;;;;19.00;13.18;;;;;;;;;;5055921;28;20209;-55
2022/01/16 01:41:08;;;;;;;16.98;11.52;;;;;;;;;;5056055;28;20208;-56
2022/01/16 01:51:52;;;;;;;19.52;12.43;;;;;;;;;;5055872;28;20190;-56
2022/01/16 01:54:19;;;;;;;18.60;13.13;;;;;;;;;;5055109;28;20237;-54
2022/01/16 01:56:46;;;;;;;18.02;11.75;;;;;;;;;;5055471;28;20225;-57
2022/01/16 01:59:14;;;;;;;18.30;11.85;;;;;;;;;;5055408;28;20232;-57
2022/01/16 02:01:41;;;;;;;16.90;12.32;;;;;;;;;;5055259;28;20210;-57
2022/01/16 02:04:09;;;;;;;20.30;12.77;;;;;;;;;;5054967;28;20725;-57
2022/01/16 02:06:37;;;;;;;22.70;13.13;;;;;;;;;;5055092;28;20213;-59
2022/01/16 02:09:06;;;;;;;16.65;11.88;;;;;;;;;;5055418;28;20217;-57
2022/01/16 02:11:33;;;;;;;18.20;12.00;;;;;;;;;;5055173;28;20259;-58
2022/01/16 02:14:07;;;;;;;18.10;12.25;;;;;;;;;;5054795;28;20218;-58
2022/01/16 02:28:02;;;;;;;19.75;11.80;;;;;;;;;;5054846;28;20555;-57
2022/01/16 02:36:09;;;;;;;20.00;12.35;;;;;;;;;;5042230;28;20234;-57
2022/01/16 02:38:38;;;;;;;17.98;11.60;;;;;;;;;;5054895;28;20204;-57
2022/01/16 02:41:05;;;;;;;17.17;11.00;;;;;;;;;;5054365;28;20198;-58
2022/01/16 02:43:35;;;;;;;18.48;11.68;;;;;;;;;;5054462;28;20229;-57
2022/01/16 02:48:49;;;;;;;19.33;12.07;;;;;;;;;;5053041;28;20181;-58
2022/01/16 02:51:17;;;;;;;19.00;12.80;;;;;;;;;;5053883;28;20198;-58
2022/01/16 02:53:46;;;;;;;17.65;11.90;;;;;;;;;;5053821;28;20221;-58
2022/01/16 02:56:14;;;;;;;17.92;10.90;;;;;;;;;;5054297;28;20589;-58
2022/01/16 02:58:41;;;;;;;17.77;11.73;;;;;;;;;;5054000;28;20202;-57
2022/01/16 03:01:09;;;;;;;18.23;12.00;;;;;;;;;;5053673;28;20198;-57
2022/01/16 03:03:36;;;;;;;17.17;11.57;;;;;;;;;;5053704;28;20198;-57
2022/01/16 03:06:04;;;;;;;14.63;10.50;;;;;;;;;;5053684;28;20205;-57
2022/01/16 03:08:31;;;;;;;15.73;10.45;;;;;;;;;;5053728;28;20205;-57
2022/01/16 03:13:48;;;;;;;15.93;10.85;;;;;;;;;;5046764;28;20314;-57
2022/01/16 03:16:16;;;;;;;13.73;9.35;;;;;;;;;;5053857;28;20217;-58
2022/01/16 03:24:13;;;;;;;17.83;10.98;;;;;;;;;;5053415;28;20228;-56
2022/01/16 03:26:42;;;;;;;16.65;11.15;;;;;;;;;;5053816;28;20224;-57
2022/01/16 03:29:10;;;;;;;15.55;10.80;;;;;;;;;;5053710;28;20275;-56
2022/01/16 03:31:37;;;;;;;15.55;10.40;;;;;;;;;;5053646;28;20209;-56
2022/01/16 03:34:04;;;;;;;16.27;10.88;;;;;;;;;;5053742;28;20248;-57
2022/01/16 03:36:31;;;;;;;16.27;10.70;;;;;;;;;;5053249;28;20235;-57
2022/01/16 03:38:59;;;;;;;17.30;11.02;;;;;;;;;;5053611;28;20209;-57
2022/01/16 03:41:28;;;;;;;18.25;11.00;;;;;;;;;;5053139;28;20224;-58
2022/01/16 03:44:01;;;;;;;17.05;10.88;;;;;;;;;;5053340;28;20225;-57
2022/01/16 03:46:34;;;;;;;19.05;11.85;;;;;;;;;;5053431;28;20178;-57
2022/01/16 03:49:01;;;;;;;17.83;11.20;;;;;;;;;;5053452;28;20193;-57
2022/01/16 03:51:29;;;;;;;15.95;10.88;;;;;;;;;;5052941;28;20209;-57
2022/01/16 03:53:56;;;;;;;17.70;11.30;;;;;;;;;;5053312;28;20705;-57
2022/01/16 03:56:24;;;;;;;16.50;11.45;;;;;;;;;;5053461;28;20232;-57
2022/01/16 03:58:51;;;;;;;18.45;13.20;;;;;;;;;;5053500;28;20206;-57
2022/01/16 04:01:20;;;;;;;17.55;11.52;;;;;;;;;;5053209;28;20214;-57
2022/01/16 04:03:47;;;;;;;19.73;11.98;;;;;;;;;;5053187;28;20240;-57
2022/01/16 04:09:11;;;;;;;20.65;13.13;;;;;;;;;;5091515;27;20554;-58
2022/01/16 04:11:44;;;;;;;23.48;13.95;;;;;;;;;;5090768;28;20208;-58
2022/01/16 04:14:20;;;;;;;22.35;14.63;;;;;;;;;;5090642;28;20315;-59
2022/01/16 04:16:48;;;;;;;22.98;14.70;;;;;;;;;;5090762;28;20587;-58
2022/01/16 04:19:15;;;;;;;20.02;13.30;;;;;;;;;;5091409;28;20211;-58
2022/01/16 04:21:42;;;;;;;26.70;16.20;;;;;;;;;;5092091;28;20196;-56
2022/01/16 04:24:11;;;;;;;20.25;13.88;;;;;;;;;;5090503;28;20703;-57
2022/01/16 04:26:38;;;;;;;24.98;16.08;;;;;;;;;;5090617;28;20202;-57
2022/01/16 04:29:06;;;;;;;25.80;16.08;;;;;;;;;;5090506;28;20537;-57
2022/01/16 04:31:33;;;;;;;21.52;15.18;;;;;;;;;;5090368;28;20208;-56
2022/01/16 04:34:00;;;;;;;24.48;16.52;;;;;;;;;;5090148;28;20231;-57
2022/01/16 04:36:27;;;;;;;28.55;16.27;;;;;;;;;;5090392;28;20547;-56
2022/01/16 04:38:55;;;;;;;26.17;16.95;;;;;;;;;;5089945;28;20192;-56
2022/01/16 04:44:08;;;;;;;21.65;15.30;;;;;;;;;;5089972;28;20215;-57
2022/01/16 04:46:36;;;;;;;23.27;13.60;;;;;;;;;;5089846;28;20203;-56
2022/01/16 04:49:04;;;;;;;21.73;14.32;;;;;;;;;;5090135;28;20224;-57
2022/01/16 04:51:32;;;;;;;21.33;13.20;;;;;;;;;;5090026;28;20204;-55
2022/01/16 04:54:00;;;;;;;22.58;15.18;;;;;;;;;;5090409;28;20232;-55
2022/01/16 04:56:28;;;;;;;22.08;13.45;;;;;;;;;;5090096;28;20540;-56
2022/01/16 04:58:56;;;;;;;22.33;14.60;;;;;;;;;;5089732;28;20193;-56
2022/01/16 05:01:23;;;;;;;21.02;13.90;;;;;;;;;;5089830;28;20204;-56
2022/01/16 05:03:51;;;;;;;20.30;13.80;;;;;;;;;;5089373;28;20220;-56
2022/01/16 05:06:18;;;;;;;21.60;14.57;;;;;;;;;;5089677;28;20197;-56
2022/01/16 05:08:45;;;;;;;28.48;15.82;;;;;;;;;;5090133;28;20216;-56
2022/01/16 05:11:15;;;;;;;22.92;14.02;;;;;;;;;;5090638;28;20201;-56
2022/01/16 05:16:38;;;;;;;23.20;14.05;;;;;;;;;;5089473;28;20200;-56
2022/01/16 05:19:07;;;;;;;22.00;13.77;;;;;;;;;;5083622;28;20177;-56
2022/01/16 05:21:34;;;;;;;19.58;13.13;;;;;;;;;;5075691;28;20232;-56
2022/01/16 05:24:06;;;;;;;21.08;13.43;;;;;;;;;;5075622;28;20691;-55
2022/01/16 05:26:34;;;;;;;19.42;13.30;;;;;;;;;;5076280;28;20182;-56
2022/01/16 05:29:03;;;;;;;18.23;10.70;;;;;;;;;;5076704;28;20270;-56
2022/01/16 05:31:31;;;;;;;13.35;9.30;;;;;;;;;;5077246;28;20215;-55
2022/01/16 05:33:58;;;;;;;13.35;9.38;;;;;;;;;;5077962;28;20232;-56
2022/01/16 05:36:25;;;;;;;12.45;9.00;;;;;;;;;;5081820;28;20677;-56
2022/01/16 05:38:53;;;;;;;10.98;7.78;;;;;;;;;;5077889;28;20215;-56
2022/01/16 05:41:20;;;;;;;13.05;8.23;;;;;;;;;;5077653;28;20262;-56
2022/01/16 05:43:48;;;;;;;11.90;7.80;;;;;;;;;;5077342;28;20642;-56
2022/01/16 05:46:17;;;;;;;11.98;7.78;;;;;;;;;;5079247;28;20668;-56
2022/01/16 05:48:44;;;;;;;10.90;7.53;;;;;;;;;;5076066;28;20228;-57
2022/01/16 05:51:12;;;;;;;8.80;6.80;;;;;;;;;;5075447;28;20205;-55
2022/01/16 05:53:39;;;;;;;10.13;6.97;;;;;;;;;;5075442;28;20235;-56
2022/01/16 05:56:06;;;;;;;11.93;8.40;;;;;;;;;;5074917;28;20699;-55
2022/01/16 05:58:34;;;;;;;9.85;6.60;;;;;;;;;;5075138;28;20197;-55
2022/01/16 06:01:01;;;;;;;10.75;8.00;;;;;;;;;;5075238;28;20209;-56
2022/01/16 06:03:30;;;;;;;12.60;7.70;;;;;;;;;;5075075;28;20201;-57
2022/01/16 06:05:57;;;;;;;12.07;8.38;;;;;;;;;;5075001;28;20200;-57
2022/01/16 06:08:25;;;;;;;11.23;7.45;;;;;;;;;;5074987;28;20228;-56
2022/01/16 06:10:52;;;;;;;11.40;8.48;;;;;;;;;;5074989;28;20205;-56
2022/01/16 06:13:19;;;;;;;11.60;8.80;;;;;;;;;;5075166;28;20201;-57
2022/01/16 06:15:47;;;;;;;11.25;8.00;;;;;;;;;;5074727;28;20201;-56
2022/01/16 06:18:15;;;;;;;11.27;8.40;;;;;;;;;;5074681;28;20229;-57
2022/01/16 06:20:44;;;;;;;11.98;8.88;;;;;;;;;;5074472;28;20676;-56
2022/01/16 06:23:12;;;;;;;11.02;8.73;;;;;;;;;;5074793;28;20205;-57
2022/01/16 06:25:39;;;;;;;11.60;8.63;;;;;;;;;;5074745;28;20650;-55
2022/01/16 06:28:06;;;;;;;10.98;8.88;;;;;;;;;;5074726;28;20225;-56
2022/01/16 06:30:35;;;;;;;10.52;8.20;;;;;;;;;;5073489;28;20687;-56
2022/01/16 06:33:05;;;;;;;9.90;7.53;;;;;;;;;;5074162;28;20205;-56
2022/01/16 06:35:32;;;;;;;11.40;8.80;;;;;;;;;;5074185;28;20236;-57
2022/01/16 06:38:01;;;;;;;12.43;9.35;;;;;;;;;;5074184;28;20193;-55
2022/01/16 06:40:28;;;;;;;11.98;9.05;;;;;;;;;;5074111;28;20205;-55
2022/01/16 06:42:56;;;;;;;11.77;9.10;;;;;;;;;;5074313;28;20621;-57
2022/01/16 06:45:23;;;;;;;11.45;8.95;;;;;;;;;;5073996;28;20228;-56
2022/01/16 06:47:51;;;;;;;10.68;8.82;;;;;;;;;;5074203;28;20613;-56
2022/01/16 06:50:19;;;;;;;13.82;10.27;;;;;;;;;;5074240;28;20212;-56
2022/01/16 06:52:46;;;;;;;13.07;9.93;;;;;;;;;;5073810;28;20579;-57
2022/01/16 06:55:15;;;;;;;15.18;10.05;;;;;;;;;;5074097;28;20229;-57
2022/01/16 06:57:42;;;;;;;17.38;11.55;;;;;;;;;;5074243;28;20259;-56
2022/01/16 07:00:10;;;;;;;15.07;11.23;;;;;;;;;;5074181;28;20288;-56
2022/01/16 07:02:37;;;;;;;17.08;11.07;;;;;;;;;;5073999;28;20204;-56
2022/01/16 07:05:04;;;;;;;13.60;10.80;;;;;;;;;;5073906;28;20221;-57
2022/01/16 07:07:32;;;;;;;15.05;10.52;;;;;;;;;;5073626;28;20223;-55
2022/01/16 07:09:59;;;;;;;18.42;12.32;;;;;;;;;;5073685;28;20713;-57
2022/01/16 07:12:28;;;;;;;18.58;12.63;;;;;;;;;;5073524;28;20576;-56
2022/01/16 07:14:55;;;;;;;20.65;13.68;;;;;;;;;;5073746;28;20720;-57
2022/01/16 07:17:22;;;;;;;26.70;14.00;;;;;;;;;;5074315;28;20236;-56
2022/01/16 07:19:50;;;;;;;19.45;12.27;;;;;;;;;;5074431;28;20201;-56
2022/01/16 07:22:21;;;;;;;22.52;13.68;;;;;;;;;;5073325;28;20216;-56
2022/01/16 07:24:48;;;;;;;28.40;16.38;;;;;;;;;;5073434;28;20224;-56
2022/01/16 07:27:16;;;;;;;26.58;15.43;;;;;;;;;;5073308;28;20573;-56
2022/01/16 07:29:44;;;;;;;25.08;16.30;;;;;;;;;;5073275;28;20220;-56
2022/01/16 07:32:12;;;;;;;24.30;15.60;;;;;;;;;;5073288;28;20212;-56
2022/01/16 07:34:39;;;;;;;29.75;18.52;;;;;;;;;;5073618;28;20232;-56
2022/01/16 07:37:07;;;;;;;31.20;18.88;;;;;;;;;;5073234;28;20211;-57
2022/01/16 07:39:34;;;;;;;28.95;16.40;;;;;;;;;;5073170;28;20208;-56
2022/01/16 07:42:01;;;;;;;33.20;18.88;;;;;;;;;;5075679;28;20676;-56
2022/01/16 07:44:29;;;;;;;28.88;17.17;;;;;;;;;;5080284;28;20228;-56
2022/01/16 07:46:57;;;;;;;29.02;17.15;;;;;;;;;;5079492;28;20212;-56
2022/01/16 07:49:24;;;;;;;30.05;18.00;;;;;;;;;;5079079;28;20224;-57
2022/01/16 07:51:52;;;;;;;30.80;17.98;;;;;;;;;;5079354;28;20200;-56
2022/01/16 07:54:20;;;;;;;33.05;19.00;;;;;;;;;;5075894;28;20225;-56
2022/01/16 07:56:47;;;;;;;39.65;20.58;;;;;;;;;;5073439;28;20212;-56
2022/01/16 07:59:16;;;;;;;33.13;19.58;;;;;;;;;;5073589;28;20208;-56
2022/01/16 08:01:43;;;;;;;33.83;19.48;;;;;;;;;;5073459;28;20299;-56
2022/01/16 08:04:12;;;;;;;36.35;21.15;;;;;;;;;;5073533;28;20227;-56
2022/01/16 08:06:39;;;;;;;39.03;20.80;;;;;;;;;;5073573;28;20207;-56
2022/01/16 08:09:07;;;;;;;40.35;22.40;;;;;;;;;;5075288;28;20247;-56
2022/01/16 08:11:34;;;;;;;36.67;21.02;;;;;;;;;;5077731;28;20204;-55
2022/01/16 08:14:01;;;;;;;36.05;18.73;;;;;;;;;;5075460;28;20232;-56
2022/01/16 08:16:28;;;;;;;36.00;20.40;;;;;;;;;;5074596;28;20201;-56
2022/01/16 08:18:56;;;;;;;35.40;21.83;;;;;;;;;;5073187;28;20200;-57
2022/01/16 08:21:24;;;;;;;41.13;20.88;;;;;;;;;;5073467;28;20685;-56
2022/01/16 08:23:52;;;;;;;37.67;20.30;;;;;;;;;;5073257;28;20243;-56
2022/01/16 08:26:19;;;;;;;37.33;19.98;;;;;;;;;;5073362;28;20555;-56
2022/01/16 08:28:46;;;;;;;36.05;21.23;;;;;;;;;;5074390;28;20223;-57
2022/01/16 08:31:14;;;;;;;40.10;22.05;;;;;;;;;;5073072;28;20630;-56
2022/01/16 08:33:41;;;;;;;37.97;22.05;;;;;;;;;;5072725;28;20221;-56
2022/01/16 08:36:08;;;;;;;42.22;23.65;;;;;;;;;;5072988;28;20224;-56
2022/01/16 08:38:37;;;;;;;36.30;20.73;;;;;;;;;;5072977;28;20204;-56
2022/01/16 08:41:05;;;;;;;35.08;22.77;;;;;;;;;;5072645;28;20215;-57
2022/01/16 08:43:32;;;;;;;33.85;20.15;;;;;;;;;;5072935;28;20212;-56
2022/01/16 08:46:00;;;;;;;36.65;23.02;;;;;;;;;;5072739;28;20692;-56
2022/01/16 08:48:27;;;;;;;39.40;22.33;;;;;;;;;;5074846;28;20669;-56
2022/01/16 08:50:54;;;;;;;37.60;20.85;;;;;;;;;;5075215;28;20205;-56
2022/01/16 08:53:22;;;;;;;40.00;23.25;;;;;;;;;;5074997;28;20677;-58
2022/01/16 08:55:50;;;;;;;41.05;21.88;;;;;;;;;;5078254;28;20669;-56
2022/01/16 08:58:18;;;;;;;39.30;21.95;;;;;;;;;;5078752;28;20204;-56
2022/01/16 09:00:47;;;;;;;39.85;22.23;;;;;;;;;;5078539;28;20681;-56
2022/01/16 09:03:14;;;;;;;38.15;22.55;;;;;;;;;;5077763;28;20228;-55
2022/01/16 09:05:42;;;;;;;37.70;21.35;;;;;;;;;;5077224;28;20229;-58
2022/01/16 09:08:09;;;;;;;43.03;24.38;;;;;;;;;;5076375;28;20603;-57
2022/01/16 09:10:37;;;;;;;41.90;24.98;;;;;;;;;;5076416;28;20225;-55
2022/01/16 09:13:06;;;;;;;43.65;24.52;;;;;;;;;;5076400;28;20212;-57
2022/01/16 09:15:34;;;;;;;36.65;22.15;;;;;;;;;;5076054;28;20727;-57
2022/01/16 09:18:01;;;;;;;34.28;22.30;;;;;;;;;;5076548;28;20200;-57
2022/01/16 09:20:28;;;;;;;46.50;24.60;;;;;;;;;;5076118;28;20200;-58
2022/01/16 09:22:55;;;;;;;41.38;23.27;;;;;;;;;;5075957;28;20571;-56
2022/01/16 09:25:23;;;;;;;36.65;22.20;;;;;;;;;;5076394;28;20229;-56
2022/01/16 09:27:50;;;;;;;42.35;24.75;;;;;;;;;;5076166;28;20232;-57
2022/01/16 09:30:19;;;;;;;41.10;26.00;;;;;;;;;;5076331;28;20577;-57
2022/01/16 09:32:47;;;;;;;39.90;24.50;;;;;;;;;;5076389;28;20204;-56
2022/01/16 09:35:14;;;;;;;43.35;24.70;;;;;;;;;;5076995;28;20584;-56
2022/01/16 09:37:42;;;;;;;40.78;23.60;;;;;;;;;;5076365;28;20208;-56
2022/01/16 09:40:10;;;;;;;38.60;24.83;;;;;;;;;;5076078;28;20208;-56
2022/01/16 09:42:37;;;;;;;40.35;23.17;;;;;;;;;;5075736;28;20204;-56
2022/01/16 09:45:06;;;;;;;42.58;24.08;;;;;;;;;;5076547;28;20224;-57
2022/01/16 09:47:34;;;;;;;39.08;24.80;;;;;;;;;;5076789;28;20204;-56
2022/01/16 09:50:04;;;;;;;37.30;24.00;;;;;;;;;;5076561;28;20217;-57
2022/01/16 09:52:32;;;;;;;38.97;23.52;;;;;;;;;;5076615;28;20201;-57
2022/01/16 09:54:59;;;;;;;37.65;24.20;;;;;;;;;;5076022;28;20225;-58
2022/01/16 09:57:26;;;;;;;39.70;23.52;;;;;;;;;;5076302;28;20209;-56
2022/01/16 09:59:54;;;;;;;36.78;22.45;;;;;;;;;;5076042;28;20204;-57
2022/01/16 10:02:21;;;;;;;39.00;24.67;;;;;;;;;;5075843;28;20213;-56
2022/01/16 10:04:50;;;;;;;40.20;23.98;;;;;;;;;;5074948;28;20221;-57
2022/01/16 10:07:18;;;;;;;39.20;25.20;;;;;;;;;;5075393;28;20213;-56
2022/01/16 10:09:46;;;;;;;47.33;26.80;;;;;;;;;;5074993;28;20232;-56
2022/01/16 10:12:16;;;;;;;51.60;26.20;;;;;;;;;;5075196;28;20204;-56
2022/01/16 10:14:49;;;;;;;43.22;27.73;;;;;;;;;;5075360;28;20275;-57
2022/01/16 10:17:17;;;;;;;41.00;25.52;;;;;;;;;;5075381;28;20189;-57
2022/01/16 10:19:45;;;;;;;45.10;25.48;;;;;;;;;;5075430;28;20205;-56
2022/01/16 10:22:14;;;;;;;42.63;25.33;;;;;;;;;;5071929;22;20257;-59
2022/01/16 10:24:42;;;;;;;49.20;27.60;;;;;;;;;;5015220;28;20199;-58
2022/01/16 10:27:14;;;;;;;44.92;28.23;;;;;;;;;;5015139;28;20293;-59
2022/01/16 10:29:42;;;;;;;41.65;24.60;;;;;;;;;;5015060;28;20223;-58
2022/01/16 10:32:14;;;;;;;45.22;26.38;;;;;;;;;;5015418;28;20597;-59
2022/01/16 10:34:41;;;;;;;52.08;29.25;;;;;;;;;;5014976;28;20261;-59
2022/01/16 10:37:24;;;;;;;48.45;25.13;;;;;;;;;;5014988;28;20203;-59
2022/01/16 10:39:55;;;;;;;45.30;24.38;;;;;;;;;;5015021;28;20179;-55
2022/01/16 10:42:23;;;;;;;44.25;26.05;;;;;;;;;;5014459;28;20230;-59
2022/01/16 10:44:56;;;;;;;40.53;24.55;;;;;;;;;;5017398;28;20250;-58
2022/01/16 10:47:25;;;;;;;40.15;24.02;;;;;;;;;;5017371;28;20198;-58
2022/01/16 10:49:59;;;;;;;44.15;25.33;;;;;;;;;;5018510;28;20233;-58
2022/01/16 10:52:28;;;;;;;42.97;25.10;;;;;;;;;;5016502;28;20253;-56
2022/01/16 10:54:55;;;;;;;41.72;24.55;;;;;;;;;;5015707;28;20206;-59
2022/01/16 10:57:24;;;;;;;43.83;24.17;;;;;;;;;;5015628;28;20226;-58
2022/01/16 10:59:51;;;;;;;39.35;23.90;;;;;;;;;;5015449;28;20202;-59
2022/01/16 11:02:18;;;;;;;46.10;24.13;;;;;;;;;;5015480;28;20234;-59
2022/01/16 11:04:45;;;;;;;35.95;21.27;;;;;;;;;;5016662;28;20674;-58
2022/01/16 11:07:13;;;;;;;41.90;24.42;;;;;;;;;;5017473;28;20210;-59
2022/01/16 11:09:41;;;;;;;43.60;25.02;;;;;;;;;;5018204;28;20226;-58
2022/01/16 11:12:10;;;;;;;43.30;23.55;;;;;;;;;;5019046;28;20227;-57
2022/01/16 11:14:37;;;;;;;40.97;23.70;;;;;;;;;;5018492;28;20211;-59
2022/01/16 11:17:05;;;;;;;38.38;22.90;;;;;;;;;;5016770;28;20206;-58
2022/01/16 11:19:35;;;;;;;41.55;24.33;;;;;;;;;;5018255;28;20203;-57
2022/01/16 11:22:08;;;;;;;33.58;20.92;;;;;;;;;;5020044;28;20789;-57
2022/01/16 11:24:47;;;;;;;36.30;23.13;;;;;;;;;;5019135;28;20188;-58
2022/01/16 11:27:17;;;;;;;41.92;23.23;;;;;;;;;;5019019;28;20191;-57
2022/01/16 11:29:45;;;;;;;43.25;23.27;;;;;;;;;;5017211;28;20215;-59
2022/01/16 11:32:12;;;;;;;44.55;24.70;;;;;;;;;;5018848;28;20257;-59
2022/01/16 11:34:39;;;;;;;45.72;25.92;;;;;;;;;;5024811;28;20218;-58
2022/01/16 11:37:07;;;;;;;37.75;23.85;;;;;;;;;;5025131;28;20203;-59
2022/01/16 11:39:35;;;;;;;40.60;24.48;;;;;;;;;;5022321;28;20224;-60
2022/01/16 11:42:04;;;;;;;41.13;23.85;;;;;;;;;;5020037;28;20254;-59
2022/01/16 11:44:34;;;;;;;41.17;24.58;;;;;;;;;;5019393;28;20226;-59
2022/01/16 11:47:03;;;;;;;33.22;20.90;;;;;;;;;;5017172;28;20769;-59
2022/01/16 11:49:34;;;;;;;39.50;24.83;;;;;;;;;;5017321;28;20280;-59
2022/01/16 11:52:09;;;;;;;39.58;22.50;;;;;;;;;;5017794;28;20249;-59
2022/01/16 11:54:40;;;;;;;35.50;23.55;;;;;;;;;;5016944;28;20191;-57
2022/01/16 11:57:21;;;;;;;32.85;22.02;;;;;;;;;;5018505;28;20184;-58
2022/01/16 11:59:50;;;;;;;39.03;25.63;;;;;;;;;;5015391;28;20598;-59
2022/01/16 12:02:19;;;;;;;37.28;24.15;;;;;;;;;;5013379;28;20223;-59
2022/01/16 12:05:02;;;;;;;35.92;21.60;;;;;;;;;;5013512;28;20214;-58
2022/01/16 12:07:49;;;;;;;41.80;25.30;;;;;;;;;;5011443;28;20207;-59
2022/01/16 12:10:35;;;;;;;38.83;25.35;;;;;;;;;;5013365;28;20246;-59
2022/01/16 12:13:02;;;;;;;41.85;23.83;;;;;;;;;;5023727;28;20227;-59
2022/01/16 12:15:32;;;;;;;43.88;24.13;;;;;;;;;;5023542;28;20210;-58
2022/01/16 12:18:00;;;;;;;32.70;20.70;;;;;;;;;;5026036;28;20214;-59
2022/01/16 12:20:30;;;;;;;43.97;26.10;;;;;;;;;;5023375;28;20230;-58
2022/01/16 12:22:58;;;;;;;43.35;26.30;;;;;;;;;;5023237;28;20624;-59
2022/01/16 12:25:26;;;;;;;45.95;26.38;;;;;;;;;;5014051;28;20210;-59
2022/01/16 12:27:57;;;;;;;44.80;26.77;;;;;;;;;;5013689;28;20210;-59
2022/01/16 12:30:28;;;;;;;46.67;26.88;;;;;;;;;;5016709;28;20589;-60
2022/01/16 12:32:58;;;;;;;50.00;28.58;;;;;;;;;;5017533;28;20230;-59
2022/01/16 12:36:00;;;;;;;42.75;27.67;;;;;;;;;;5017899;28;20207;-59
2022/01/16 12:38:28;;;;;;;51.45;30.20;;;;;;;;;;4956939;29;20197;-58
2022/01/16 12:41:01;;;;;;;48.00;29.13;;;;;;;;;;4956899;29;20344;-59
2022/01/16 12:43:31;;;;;;;47.40;28.02;;;;;;;;;;4989118;28;20227;-59
2022/01/16 12:45:58;;;;;;;51.15;27.58;;;;;;;;;;5017145;28;20203;-59
2022/01/16 12:48:27;;;;;;;45.88;29.73;;;;;;;;;;5017096;28;20206;-59
2022/01/16 12:51:00;;;;;;;51.50;28.20;;;;;;;;;;5016866;28;20699;-60
2022/01/16 12:53:34;;;;;;;49.85;29.65;;;;;;;;;;5017255;28;20230;-59
2022/01/16 12:56:15;;;;;;;48.60;28.88;;;;;;;;;;5017340;28;20211;-60
2022/01/16 12:58:42;;;;;;;53.90;30.90;;;;;;;;;;5017442;28;20191;-59
2022/01/16 13:01:09;;;;;;;48.03;30.33;;;;;;;;;;5017249;28;20206;-58
2022/01/16 13:03:39;;;;;;;46.70;29.77;;;;;;;;;;5016977;28;20210;-59
2022/01/16 13:06:16;;;;;;;48.17;28.70;;;;;;;;;;5017261;28;20538;-59
2022/01/16 13:08:54;;;;;;;45.92;28.75;;;;;;;;;;5016969;28;20199;-59
2022/01/16 13:11:21;;;;;;;49.67;27.55;;;;;;;;;;5017070;28;20210;-58
2022/01/16 13:13:49;;;;;;;49.92;28.80;;;;;;;;;;5016753;28;20214;-59
2022/01/16 13:16:20;;;;;;;45.00;28.35;;;;;;;;;;5016611;28;20698;-58
2022/01/16 13:19:06;;;;;;;50.35;29.60;;;;;;;;;;5017985;28;20210;-60
2022/01/16 13:22:03;;;;;;;48.38;28.50;;;;;;;;;;5018568;28;20282;-60
2022/01/16 13:24:38;;;;;;;44.38;29.00;;;;;;;;;;5020084;28;20215;-58
2022/01/16 13:27:06;;;;;;;43.30;24.75;;;;;;;;;;5017373;28;20190;-59
2022/01/16 13:29:34;;;;;;;52.20;29.63;;;;;;;;;;5016236;28;20203;-59
2022/01/16 13:32:04;;;;;;;49.58;27.83;;;;;;;;;;5016423;28;20227;-59
2022/01/16 13:34:49;;;;;;;50.75;29.05;;;;;;;;;;5016480;28;20268;-59
2022/01/16 13:37:20;;;;;;;51.70;30.00;;;;;;;;;;5016012;28;20198;-59
2022/01/16 13:39:48;;;;;;;56.00;30.70;;;;;;;;;;5015440;28;20485;-57
2022/01/16 13:45:32;;;;;;;53.60;30.98;;;5.70;99.90;;;;;;5006139;28;20207;-59
2022/01/16 13:48:03;;;;;;;48.13;27.42;;;5.80;99.90;;;;;;5015905;28;20205;-59
2022/01/16 13:50:33;;;;;;;47.38;29.58;;;5.70;99.90;;;;;;5016159;28;20207;-60
2022/01/16 13:53:03;;;;;;;51.53;28.60;;;5.80;99.90;;;;;;5015649;28;20230;-59
2022/01/16 13:55:33;;;;;;;52.75;30.75;;;5.80;99.90;;;;;;5016427;28;20194;-59
2022/01/16 13:58:00;;;;;;;46.13;30.50;;;5.80;99.90;;;;;;5016115;28;20639;-58
2022/01/16 14:00:35;;;;;;;52.28;27.67;;;5.80;99.90;;;;;;5016009;28;20207;-59
2022/01/16 14:03:17;;;;;;;45.38;29.20;;;5.80;99.90;;;;;;5016090;28;20714;-58
2022/01/16 14:05:47;;;;;;;46.05;27.80;;;5.70;99.90;;;;;;5016666;28;20214;-59
2022/01/16 14:08:36;;;;;;;46.00;29.02;;;5.80;99.90;;;;;;5015804;28;20209;-59
2022/01/16 14:11:12;;;;;;;40.63;25.80;;;5.80;99.90;;;;;;5015976;28;20338;-60
2022/01/16 14:13:50;;;;;;;44.50;25.73;;;5.80;99.90;;;;;;5016190;28;20203;-58
2022/01/16 14:16:19;;;;;;;42.80;27.95;;;5.80;99.90;;;;;;5015839;28;20206;-59
2022/01/16 14:19:08;;;;;;;44.03;26.40;;;5.70;99.90;;;;;;5015597;28;20294;-57
2022/01/16 14:24:35;;;;;;;42.55;27.13;;;5.60;99.90;;;;;;5012019;28;20357;-58
2022/01/16 14:27:04;;;;;;;42.17;29.23;;;;;;;;;;5015293;28;20206;-59
2022/01/16 14:29:31;;;;;;;43.55;28.35;;;;;;;;;;5015710;28;20579;-60
2022/01/16 14:31:59;;;;;;;47.58;28.40;;;;;;;;;;5015538;28;20231;-58
2022/01/16 14:34:27;;;;;;;41.78;27.38;;;;;;;;;;5015704;28;20203;-58
2022/01/16 14:36:55;;;;;;;48.08;30.30;;;;;;;;;;5015393;28;20234;-59
2022/01/16 14:39:23;;;;;;;44.08;28.60;;;;;;;;;;5015441;28;20214;-59
2022/01/16 14:41:52;;;;;;;44.67;29.02;;;;;;;;;;5015146;28;20262;-59
2022/01/16 14:44:20;;;;;;;44.85;29.10;;;;;;;;;;5015007;28;20207;-59
2022/01/16 14:46:48;;;;;;;43.55;28.63;;;;;;;;;;5014826;28;20203;-59
2022/01/16 14:49:15;;;;;;;48.30;29.05;;;;;;;;;;5015196;28;20207;-59
2022/01/16 14:51:43;;;;;;;48.08;28.60;;;;;;;;;;5014315;28;20226;-60
2022/01/16 14:54:11;;;;;;;55.33;29.00;;;;;;;;;;5016941;28;20199;-59
2022/01/16 14:56:39;;;;;;;46.10;27.77;;;;;;;;;;5022575;28;20210;-60
2022/01/16 14:59:08;;;;;;;42.97;30.27;;;;;;;;;;5023188;28;20214;-60
2022/01/16 15:01:36;;;;;;;40.55;24.13;;;;;;;;;;5024873;28;20215;-60
2022/01/16 15:04:04;;;;;;;43.85;29.33;;;;;;;;;;5027936;28;20203;-62
2022/01/16 15:06:31;;;;;;;44.63;28.15;;;;;;;;;;5025778;28;20210;-63
2022/01/16 15:09:00;;;;;;;36.22;25.52;;;;;;;;;;5022681;28;20207;-61
2022/01/16 15:11:28;;;;;;;39.63;26.83;;;;;;;;;;5021665;28;20252;-60
2022/01/16 15:13:56;;;;;;;42.70;27.85;;;;;;;;;;5022061;28;20552;-62
2022/01/16 15:16:26;;;;;;;42.38;24.10;;;;;;;;;;5023275;28;20275;-60
2022/01/16 15:18:56;;;;;;;37.95;26.17;;;;;;;;;;5021310;28;20227;-60